Aérodrome :
LOGIN :

S'inscrire | Disclaimer

   EN    FR    IT 

 










Légende :    VFR   VFR Marginal   IFR   IFR Intensif   IFR Très Intensif
Visi : 
Plafond : 
>= 8 km
>= 3000ft
5 à 8 km
1000 à 3000 ft
1500m à 5 km
500 à 1000 ft
800 à 1500m
200 à 500 ft
< 800m
< 200 ft
Symboles :   Orages  Brouillard  Fortes neiges  Fortes précipitations  Vent > 20 kt
SIGMETs :   Divers  Orages  Givrage  Turbulence  Onde Orograph.  Cendres Volcan.







- Altitude de l'aérodrome : 157 ft
- Code IATA : LIL
- Voir les cartes d'approche


LFQQ - Lille Lesquin

DERNIER METAR :
  • 181030Z AUTO 18007KT 150V210 CAVOK 17/13 Q1012 NOSIG

METARs EXPIRÉS :
  • 181000Z AUTO 16008KT 9000 NSC 16/12 Q1012 NOSIG
  • 180930Z AUTO 17008KT 7000 NSC 14/12 Q1012 NOSIG
  • 180900Z AUTO 15005KT 5000 BR NSC 13/11 Q1013 NOSIG
  • 180830Z AUTO 16005KT 120V180 5000 2300 BR NSC 12/11 Q1013 NOSIG

TAF TAF LFQQ
Valide du 18 à 06h jusqu'au 19 à 12h UTC


180500Z 1806/1912 VRB03KT 3000 BR BKN003
TEMPO 1806/1809 0200 FG VV///
BECMG 1809/1812 18010KT 9999 NSW SCT010
BECMG 1900/1903 3000 BR
PROB40
TEMPO 1903/1907 0500 FG
BECMG 1909/1911 CAVOK
ATIS : +33 3 20 16 19 54
Pas de NOTAMs connus pour ce terrain.



MET'MAP, la Météo Aéronautique d'un coup d'oeil ! - Copyright ORBIFLY Décembre 2007 - Disclaimer

ORBIFLY MET'MAP TEAM :

Programmation & Développement : Alexandra Zaïnal
Conception & Développement : Baudouin d'Aumeries
Co-Programmation & Développement : Marc-Olivier Méhu
Soutien technique & logistique : Manuel Goepfert

Contact : metmap@orbifly.com




SOURCES & CREDITS :

   NOAA